createdAt,value
2023-01-09T00:01:37.152Z,-5.13
2023-01-09T00:04:04.204Z,-5.08
2023-01-09T00:06:31.161Z,-5.03
2023-01-09T00:08:57.995Z,-4.96
2023-01-09T00:11:24.916Z,-4.91
2023-01-09T00:13:51.792Z,-4.85
2023-01-09T00:16:18.723Z,-4.82
2023-01-09T00:18:45.653Z,-4.82
2023-01-09T00:21:13.368Z,-4.81
2023-01-09T00:23:40.319Z,-4.81
2023-01-09T00:26:10.038Z,-4.83
2023-01-09T00:28:36.899Z,-4.84
2023-01-09T00:31:05.319Z,-4.89
2023-01-09T00:33:37.309Z,-4.91
2023-01-09T00:36:04.450Z,-4.95
2023-01-09T00:38:31.516Z,-4.97
2023-01-09T00:40:58.460Z,-4.98
2023-01-09T00:43:28.508Z,-4.96
2023-01-09T00:45:55.421Z,-4.95
2023-01-09T00:48:26.937Z,-4.90
2023-01-09T00:50:54.400Z,-4.82
2023-01-09T00:53:23.620Z,-4.74
2023-01-09T00:55:51.762Z,-4.71
2023-01-09T00:58:19.780Z,-4.69
2023-01-09T01:00:47.035Z,-4.66
2023-01-09T01:03:13.893Z,-4.63
2023-01-09T01:05:59.755Z,-4.60
2023-01-09T01:08:26.673Z,-4.58
2023-01-09T01:10:53.681Z,-4.59
2023-01-09T01:13:20.570Z,-4.62
2023-01-09T01:15:47.549Z,-4.66
2023-01-09T01:18:14.803Z,-4.69
2023-01-09T01:20:42.777Z,-4.73
2023-01-09T01:23:09.722Z,-4.75
2023-01-09T01:25:41.144Z,-4.77
2023-01-09T01:28:08.267Z,-4.81
2023-01-09T01:30:39.878Z,-4.83
2023-01-09T01:33:06.931Z,-4.86
2023-01-09T01:35:33.936Z,-4.84
2023-01-09T01:38:01.008Z,-4.80
2023-01-09T01:40:28.207Z,-4.76
2023-01-09T01:42:55.765Z,-4.72
2023-01-09T01:45:27.481Z,-4.68
2023-01-09T01:47:59.009Z,-4.63
2023-01-09T01:50:33.342Z,-4.59
2023-01-09T01:53:06.159Z,-4.57
2023-01-09T01:55:35.099Z,-4.50
2023-01-09T01:58:03.455Z,-4.49
2023-01-09T02:00:32.983Z,-4.52
2023-01-09T02:03:00.266Z,-4.59
2023-01-09T02:05:27.197Z,-4.62
2023-01-09T02:07:54.070Z,-4.66
2023-01-09T02:10:23.691Z,-4.70
2023-01-09T02:12:51.055Z,-4.73
2023-01-09T02:15:17.922Z,-4.76
2023-01-09T02:18:00.145Z,-4.75
2023-01-09T02:20:36.482Z,-4.78
2023-01-09T02:23:29.120Z,-4.87
2023-01-09T02:26:02.190Z,-4.91
2023-01-09T02:29:14.216Z,-4.92
2023-01-09T02:31:43.752Z,-4.90
2023-01-09T02:34:33.200Z,-4.91
2023-01-09T02:37:14.519Z,-4.91
2023-01-09T02:40:01.042Z,-4.90
2023-01-09T02:42:27.906Z,-4.94
2023-01-09T02:44:54.815Z,-4.97
2023-01-09T02:47:21.710Z,-4.98
2023-01-09T02:49:56.327Z,-4.99
2023-01-09T02:52:35.365Z,-5.01
2023-01-09T02:55:27.422Z,-5.02
2023-01-09T02:58:23.435Z,-5.05
2023-01-09T03:00:58.572Z,-5.08
2023-01-09T03:03:45.079Z,-5.07
2023-01-09T03:06:33.357Z,-5.09
2023-01-09T03:09:03.161Z,-5.09
2023-01-09T03:11:32.649Z,-5.07
2023-01-09T03:14:04.381Z,-5.08
2023-01-09T03:16:40.134Z,-5.07
2023-01-09T03:19:11.023Z,-5.08
2023-01-09T03:21:37.928Z,-5.07
2023-01-09T03:24:05.142Z,-5.07
2023-01-09T03:26:32.015Z,-5.04
2023-01-09T03:28:59.063Z,-5.01
2023-01-09T03:31:26.036Z,-4.98
2023-01-09T03:33:53.020Z,-5.02
2023-01-09T03:36:20.738Z,-5.03
2023-01-09T03:38:47.701Z,-5.04
2023-01-09T03:41:14.594Z,-5.06
2023-01-09T03:43:41.463Z,-5.08
2023-01-09T03:46:08.352Z,-5.08
2023-01-09T03:48:35.374Z,-5.05
2023-01-09T03:51:02.243Z,-5.03
2023-01-09T03:53:29.333Z,-5.04
2023-01-09T14:28:00.054Z,-1.61
2023-01-09T14:30:26.947Z,-1.30
2023-01-09T14:33:18.969Z,-1.21
2023-01-09T14:35:59.101Z,-1.19
2023-01-09T14:38:51.782Z,-1.17
2023-01-09T14:42:03.767Z,-1.16
2023-01-09T14:44:32.551Z,-1.14
2023-01-09T14:47:27.014Z,-1.12
2023-01-09T14:50:04.291Z,-1.08
2023-01-09T14:52:34.292Z,-1.05
2023-01-09T14:55:02.481Z,-83.35
2023-01-09T14:57:31.092Z,-128.00
2023-01-09T15:00:13.561Z,-128.00
2023-01-09T15:02:41.479Z,-128.00
2023-01-09T15:05:13.060Z,-128.00
2023-01-09T15:08:09.391Z,-128.00
2023-01-09T15:10:43.596Z,-128.00
2023-01-09T15:13:15.290Z,-128.00
2023-01-09T15:15:46.844Z,-128.00
2023-01-09T15:18:19.354Z,-128.00
2023-01-09T15:20:47.114Z,-128.00
2023-01-09T15:23:25.444Z,-128.00
2023-01-09T15:25:52.507Z,-128.00
2023-01-09T15:28:25.527Z,-128.00
2023-01-09T15:31:04.902Z,-128.00
2023-01-09T15:33:32.321Z,-128.00
2023-01-09T15:36:02.815Z,-128.00
2023-01-09T15:38:31.528Z,-128.00
2023-01-09T15:41:05.092Z,-128.00
2023-01-09T15:43:31.973Z,-128.00
2023-01-09T15:45:59.050Z,-128.00
2023-01-09T15:48:28.054Z,-128.00
2023-01-09T15:51:04.609Z,-128.00
2023-01-09T15:53:31.663Z,-128.00
2023-01-09T15:56:20.464Z,-128.00
2023-01-09T15:58:54.183Z,-128.00
2023-01-09T16:01:40.193Z,-128.00
2023-01-09T16:04:15.826Z,-128.00
2023-01-09T16:06:48.122Z,-128.00
2023-01-09T16:09:23.458Z,-128.00
2023-01-09T16:11:53.222Z,-128.00
2023-01-09T16:14:30.822Z,-128.00
2023-01-09T16:17:02.775Z,-128.00
2023-01-09T16:19:49.191Z,-128.00
2023-01-09T16:22:32.948Z,-128.00
2023-01-09T16:25:01.417Z,-128.00
2023-01-09T16:27:31.277Z,-128.00
2023-01-09T16:30:08.835Z,-128.00
2023-01-09T16:32:45.387Z,-128.00
2023-01-09T16:35:17.025Z,-128.00
2023-01-09T16:37:43.776Z,-128.00
2023-01-09T16:40:23.050Z,-128.00
2023-01-09T16:43:01.986Z,-128.00
2023-01-09T16:45:33.884Z,-128.00
2023-01-09T16:48:01.458Z,-128.00
2023-01-09T16:50:28.396Z,-128.00
2023-01-09T16:52:56.172Z,-128.00
2023-01-09T16:55:23.073Z,-128.00
2023-01-09T16:57:49.943Z,-128.00
2023-01-09T17:00:20.409Z,-128.00
2023-01-09T17:02:48.296Z,-128.00
2023-01-09T17:05:15.411Z,-128.00
2023-01-09T17:07:42.324Z,-128.00
2023-01-09T17:10:16.279Z,-128.00
2023-01-09T17:12:43.632Z,-128.00
2023-01-09T17:15:10.708Z,-128.00
2023-01-09T17:17:37.536Z,-128.00
2023-01-09T17:20:13.844Z,-128.00
2023-01-09T17:22:40.797Z,-128.00
2023-01-09T17:25:34.783Z,-128.00
2023-01-09T17:28:21.369Z,-128.00
2023-01-09T17:30:48.349Z,-128.00
2023-01-09T17:33:19.086Z,-128.00
2023-01-09T17:35:46.081Z,-128.00
2023-01-09T17:38:16.358Z,-128.00
2023-01-09T17:40:43.487Z,-128.00
2023-01-09T17:43:10.467Z,-128.00
2023-01-09T17:45:38.233Z,-128.00
2023-01-09T17:48:05.447Z,-128.00
2023-01-09T17:50:34.778Z,-128.00
2023-01-09T21:33:39.170Z,-0.90
2023-01-09T21:36:06.754Z,-0.80
2023-01-09T21:38:33.722Z,-0.84
2023-01-09T21:41:20.635Z,-0.90
2023-01-09T21:44:06.426Z,-0.92
2023-01-09T21:46:51.842Z,-0.97
2023-01-09T21:49:19.856Z,-1.00
2023-01-09T21:51:46.719Z,-1.04
2023-01-09T21:54:13.730Z,-1.07
2023-01-09T21:56:40.664Z,-1.08
2023-01-09T21:59:07.700Z,-1.11
2023-01-09T22:01:34.867Z,-1.12
2023-01-09T22:04:01.925Z,-1.15
2023-01-09T22:06:28.997Z,-1.17
2023-01-09T22:08:56.371Z,-1.19
2023-01-09T22:11:23.318Z,-1.20
2023-01-09T22:13:50.637Z,-1.22
2023-01-09T22:16:17.686Z,-1.23
2023-01-09T22:18:44.665Z,-1.26
2023-01-09T22:21:11.713Z,-1.31
2023-01-09T22:23:38.706Z,-1.35
2023-01-09T22:26:13.258Z,-1.38
2023-01-09T22:28:40.470Z,-1.40
2023-01-09T22:31:15.439Z,-1.40
2023-01-09T22:33:42.432Z,-1.42
2023-01-09T22:36:10.977Z,-1.45
2023-01-09T22:38:37.895Z,-1.49
2023-01-09T22:41:05.035Z,-1.54
2023-01-09T22:43:31.961Z,-1.57
2023-01-09T22:46:03.063Z,-1.61
2023-01-09T22:48:31.961Z,-1.65
2023-01-09T22:51:00.791Z,-1.69
2023-01-09T22:53:28.668Z,-1.73
2023-01-09T22:55:57.002Z,-1.74
2023-01-09T22:58:25.094Z,-1.75
2023-01-09T23:00:52.453Z,-1.76
2023-01-09T23:03:19.368Z,-1.77
2023-01-09T23:05:46.279Z,-1.80
2023-01-09T23:08:14.324Z,-1.82
2023-01-09T23:10:41.373Z,-1.86
2023-01-09T23:13:08.313Z,-1.87
2023-01-09T23:15:35.344Z,-1.87
2023-01-09T23:18:02.299Z,-1.88
2023-01-09T23:20:29.225Z,-1.89
2023-01-09T23:22:58.852Z,-1.90
2023-01-09T23:25:25.962Z,-1.90
2023-01-09T23:27:53.263Z,-1.89
2023-01-09T23:30:20.207Z,-1.89
2023-01-09T23:32:47.190Z,-1.87
2023-01-09T23:35:16.260Z,-1.86
2023-01-09T23:37:43.791Z,-1.86
2023-01-09T23:40:12.311Z,-1.88
2023-01-09T23:42:58.396Z,-1.90
2023-01-09T23:45:25.445Z,-1.89
2023-01-09T23:47:52.391Z,-1.89
2023-01-09T23:50:19.336Z,-1.91
